Terminal Aerodrome Forecast
Issued by NWS Shreveport, LA

Home | Current Version | Previous Version | Text Only | Print | Product List | Glossary On
Versions: 1 2 3 4 5 6 7 8 9 10 11 12 13 14
000
FTUS44 KSHV 051455 AAA
TAFTXK
TAF AMD
KTXK 051455Z 0515/0612 15009KT P6SM FEW015 BKN100
     FM051800 15014G22KT P6SM VCSH BKN040 BKN250
     FM060000 15010KT P6SM VCTS BKN050CB
      TEMPO 0609/0612 P6SM NSW BKN015=

USA.gov is the U.S. government's official web portal to all federal, state and local government web resources and services.